Time;durP1;ratioP1;P1;durP2;ratioP2;P2;SDS_P1;SDS_P2;PMS_P1;PMS_P2;Temp;Humidity;BMP_temperature;BMP_pressure;BME280_temperature;BME280_humidity;BME280_pressure;Samples;Min_cycle;Max_cycle;Signal;HPM_P1;HPM_P2
2023/09/08 00:02:04;;;;;;;1.83;1.77;;;;;;;19.14;82.54;95730.81;4292014;33;20237;-66
2023/09/08 00:04:29;;;;;;;1.97;1.87;;;;;;;19.15;82.62;95727.00;4311300;33;20217;-66
2023/09/08 00:06:55;;;;;;;2.03;1.93;;;;;;;19.17;83.18;95730.13;4310903;33;20198;-66
2023/09/08 00:09:20;;;;;;;2.97;2.77;;;;;;;18.99;82.58;95734.16;4309144;33;20254;-66
2023/09/08 00:11:45;;;;;;;1.23;1.23;;;;;;;19.08;83.53;95729.47;4306385;33;20242;-66
2023/09/08 00:14:11;;;;;;;2.03;1.93;;;;;;;19.05;83.42;95732.84;4304527;33;20194;-66
2023/09/08 00:16:38;;;;;;;2.13;2.03;;;;;;;19.06;83.62;95737.09;4290856;33;20277;-66
2023/09/08 00:19:04;;;;;;;3.87;2.67;;;;;;;18.93;83.84;95738.19;4308688;33;20275;-66
2023/09/08 00:21:29;;;;;;;2.53;2.33;;;;;;;18.98;83.96;95726.44;4311055;33;20186;-66
2023/09/08 00:23:54;;;;;;;2.70;2.50;;;;;;;18.64;83.93;95730.34;4309103;33;20190;-66
2023/09/08 00:26:20;;;;;;;1.87;1.77;;;;;;;18.94;84.40;95726.31;4290626;33;20210;-66
2023/09/08 00:28:47;;;;;;;2.53;2.37;;;;;;;18.74;84.85;95732.59;4305826;33;20305;-66
2023/09/08 00:31:12;;;;;;;3.07;2.87;;;;;;;18.94;84.41;95726.31;4308348;33;20216;-66
2023/09/08 00:33:38;;;;;;;7.27;3.17;;;;;;;18.97;83.80;95733.72;4295020;33;20190;-66
2023/09/08 00:36:03;;;;;;;2.60;2.43;;;;;;;19.07;83.94;95724.44;4289693;33;20198;-66
2023/09/08 00:38:28;;;;;;;2.20;2.00;;;;;;;19.04;83.48;95712.44;4314309;33;20257;-66
2023/09/08 00:40:54;;;;;;;2.53;2.33;;;;;;;18.95;84.51;95711.75;4299182;33;20193;-66
2023/09/08 00:43:19;;;;;;;2.47;2.37;;;;;;;18.58;85.03;95715.53;4303763;33;20254;-66
2023/09/08 00:45:45;;;;;;;2.43;2.30;;;;;;;18.61;84.98;95718.37;4303099;33;20194;-66
2023/09/08 00:48:12;;;;;;;2.77;2.40;;;;;;;18.56;86.71;95718.53;4304856;33;20193;-66
2023/09/08 00:50:37;;;;;;;1.70;1.60;;;;;;;18.62;86.22;95717.25;4298817;33;20251;-66
2023/09/08 00:53:05;;;;;;;3.17;2.87;;;;;;;18.78;85.31;95712.00;4294694;33;20191;-66
2023/09/08 00:55:33;;;;;;;2.03;1.93;;;;;;;18.75;84.87;95720.72;4303171;33;20208;-66
2023/09/08 00:58:00;;;;;;;7.30;1.87;;;;;;;18.46;85.42;95722.47;4293652;33;20197;-66
2023/09/08 01:00:27;;;;;;;1.27;1.27;;;;;;;18.63;85.48;95721.50;4312262;33;20186;-66
2023/09/08 01:02:52;;;;;;;5.60;2.30;;;;;;;18.74;85.01;95716.47;4304664;33;20356;-66
2023/09/08 01:05:18;;;;;;;2.73;2.53;;;;;;;18.85;84.58;95712.22;4284534;33;20206;-66
2023/09/08 01:07:44;;;;;;;2.50;2.40;;;;;;;18.50;85.18;95726.03;4284578;33;20190;-66
2023/09/08 01:10:10;;;;;;;2.47;2.37;;;;;;;18.61;85.62;95718.37;4292224;33;20257;-66
2023/09/08 01:12:36;;;;;;;2.30;1.73;;;;;;;18.33;84.25;95723.53;4299017;33;20191;-66
2023/09/08 01:15:04;;;;;;;1.97;1.87;;;;;;;18.46;86.36;95724.38;4302738;33;20195;-66
2023/09/08 01:17:30;;;;;;;2.13;2.03;;;;;;;18.36;84.86;95719.41;4312905;33;20186;-66
2023/09/08 01:19:58;;;;;;;2.67;2.47;;;;;;;18.29;85.36;95717.25;4297273;33;20182;-66
2023/09/08 01:22:45;;;;;;;2.10;2.00;;;;;;;18.10;86.06;95725.03;4294209;33;20277;-66
2023/09/08 01:25:28;;;;;;;2.73;2.07;;;;;;;18.09;85.55;95726.16;4305883;33;20194;-66
2023/09/08 01:27:54;;;;;;;2.70;2.50;;;;;;;18.39;86.42;95719.53;4303193;33;20191;-66
2023/09/08 01:30:23;;;;;;;1.77;1.70;;;;;;;17.97;86.19;95716.16;4298571;33;20182;-66
2023/09/08 01:32:50;;;;;;;1.50;1.47;;;;;;;18.05;87.02;95722.59;4296843;33;20199;-66
2023/09/08 01:35:15;;;;;;;1.87;1.77;;;;;;;18.11;86.51;95722.03;4296363;33;20306;-66
2023/09/08 01:37:48;;;;;;;4.57;2.33;;;;;;;18.15;85.53;95709.50;4295892;33;20237;-66
2023/09/08 01:40:14;;;;;;;1.83;1.73;;;;;;;17.94;86.40;95718.72;4296472;33;20194;-66
2023/09/08 01:42:41;;;;;;;2.47;2.37;;;;;;;18.06;86.72;95719.56;4295982;33;20212;-66
2023/09/08 01:45:07;;;;;;;1.70;1.70;;;;;;;17.78;86.33;95713.19;4285770;33;20262;-66
2023/09/08 01:47:34;;;;;;;2.00;1.90;;;;;;;18.13;87.10;95719.00;4299064;33;20233;-66
2023/09/08 01:49:59;;;;;;;2.03;1.93;;;;;;;18.09;86.26;95723.47;4293044;33;20262;-66
2023/09/08 01:52:25;;;;;;;1.63;1.53;;;;;;;18.08;87.03;95719.25;4280451;33;20203;-66
2023/09/08 01:54:51;;;;;;;1.17;1.07;;;;;;;18.05;87.19;95712.63;4302054;33;20273;-66
2023/09/08 01:57:17;;;;;;;2.03;1.93;;;;;;;18.16;85.37;95707.59;4284510;33;20210;-66
2023/09/08 01:59:43;;;;;;;2.53;2.33;;;;;;;17.97;84.48;95710.78;4306554;33;20253;-66
2023/09/08 02:02:08;;;;;;;1.97;1.80;;;;;;;18.00;84.63;95706.66;4297874;33;20221;-66
2023/09/08 02:04:33;;;;;;;1.20;1.20;;;;;;;17.75;86.86;95703.88;4300044;33;20187;-66
2023/09/08 02:06:59;;;;;;;1.40;1.33;;;;;;;18.03;87.04;95700.66;4296277;33;20198;-66
2023/09/08 02:09:35;;;;;;;0.97;0.97;;;;;;;17.80;86.88;95701.00;4305148;33;20229;-66
2023/09/08 02:12:01;;;;;;;2.27;2.17;;;;;;;17.87;87.31;95695.88;4308802;33;20200;-66
2023/09/08 02:14:27;;;;;;;1.90;1.83;;;;;;;17.83;86.43;95704.94;4303951;33;20187;-66
2023/09/08 02:16:53;;;;;;;2.27;2.17;;;;;;;17.90;86.72;95699.00;4311858;33;20284;-66
2023/09/08 02:19:19;;;;;;;1.10;1.10;;;;;;;17.83;86.20;95702.25;4299876;33;20198;-66
2023/09/08 02:21:44;;;;;;;2.60;1.53;;;;;;;17.66;87.49;95703.19;4309335;33;20220;-66
2023/09/08 02:24:09;;;;;;;3.50;1.90;;;;;;;17.87;87.27;95701.25;4315154;33;20194;-66
2023/09/08 02:26:36;;;;;;;1.93;1.83;;;;;;;17.84;87.48;95709.97;4306969;33;20194;-66
2023/09/08 02:29:02;;;;;;;2.23;2.13;;;;;;;17.62;86.65;95702.25;4301741;33;20182;-66
2023/09/08 02:31:28;;;;;;;1.73;1.73;;;;;;;17.90;86.31;95704.38;4300687;33;20288;-66
2023/09/08 02:33:53;;;;;;;5.07;2.30;;;;;;;17.89;86.60;95708.97;4296694;33;20206;-66
2023/09/08 02:36:25;;;;;;;1.07;1.07;;;;;;;17.75;85.34;95703.09;4311730;33;20186;-66
2023/09/08 02:38:55;;;;;;;2.30;2.10;;;;;;;17.57;87.31;95701.66;4313882;33;20194;-66
2023/09/08 02:41:23;;;;;;;3.30;2.20;;;;;;;17.67;87.05;95712.00;4314402;33;20226;-66
2023/09/08 02:43:49;;;;;;;1.47;1.47;;;;;;;17.75;86.76;95706.56;4314463;33;20275;-66
2023/09/08 02:46:15;;;;;;;1.30;1.30;;;;;;;17.64;87.12;95705.41;4313937;33;20189;-66
2023/09/08 02:48:41;;;;;;;3.30;2.57;;;;;;;17.49;87.23;95695.22;4315536;33;20197;-66
2023/09/08 02:51:07;;;;;;;1.73;1.63;;;;;;;17.70;86.53;95700.63;4308958;33;20186;-66
2023/09/08 02:53:32;;;;;;;1.50;1.50;;;;;;;17.61;86.41;95698.00;4296980;33;20203;-66
2023/09/08 02:55:58;;;;;;;2.70;2.03;;;;;;;17.74;87.29;95698.84;4298350;33;20190;-66
2023/09/08 02:58:24;;;;;;;1.87;1.77;;;;;;;17.69;86.56;95699.81;4311853;33;20197;-66
2023/09/08 03:00:51;;;;;;;1.70;1.63;;;;;;;17.75;87.63;95703.88;4308505;33;20217;-66
2023/09/08 03:03:16;;;;;;;1.40;1.40;;;;;;;17.58;87.46;95704.00;4299404;33;20206;-66
2023/09/08 03:05:41;;;;;;;1.97;1.87;;;;;;;17.42;87.15;95701.13;4308446;33;20212;-66
2023/09/08 03:08:07;;;;;;;1.50;1.50;;;;;;;17.63;86.57;95706.50;4312769;33;20287;-66
2023/09/08 03:10:36;;;;;;;1.40;1.40;;;;;;;17.33;87.54;95708.44;4310503;33;20268;-66
2023/09/08 03:13:02;;;;;;;2.07;1.97;;;;;;;17.10;88.27;95702.59;4315398;33;20190;-66
2023/09/08 03:15:28;;;;;;;1.20;1.20;;;;;;;17.35;87.98;95700.88;4319110;33;20255;-66
2023/09/08 03:18:00;;;;;;;2.57;2.37;;;;;;;17.45;87.63;95703.16;4314661;33;20316;-66
2023/09/08 03:20:27;;;;;;;1.87;1.77;;;;;;;17.53;88.06;95701.50;4299481;33;20194;-66
2023/09/08 03:22:52;;;;;;;1.50;1.40;;;;;;;17.44;87.90;95693.56;4313516;33;20194;-66
2023/09/08 03:25:19;;;;;;;2.97;1.60;;;;;;;17.41;85.96;95699.56;4313904;33;20229;-66
2023/09/08 03:27:44;;;;;;;1.90;1.53;;;;;;;17.42;87.72;95700.34;4313788;33;20236;-66
2023/09/08 03:30:10;;;;;;;1.33;1.33;;;;;;;17.51;86.88;95696.47;4306405;33;20241;-66
2023/09/08 03:32:36;;;;;;;1.43;1.40;;;;;;;17.63;86.66;95697.66;4314477;33;20217;-66
2023/09/08 03:35:03;;;;;;;1.07;1.07;;;;;;;17.27;86.57;95699.00;4316227;33;20197;-66
2023/09/08 03:37:29;;;;;;;1.30;1.23;;;;;;;17.51;87.37;95704.53;4300529;33;20197;-66
2023/09/08 03:39:54;;;;;;;2.67;2.47;;;;;;;17.50;86.85;95696.81;4301803;33;20216;-66
2023/09/08 03:42:19;;;;;;;0.90;0.90;;;;;;;17.45;86.74;95705.84;4312388;33;20202;-66
2023/09/08 03:44:44;;;;;;;1.77;1.70;;;;;;;17.41;85.71;95699.56;4302091;33;20194;-66
2023/09/08 03:47:10;;;;;;;1.73;1.73;;;;;;;17.38;86.82;95699.44;4313599;33;20256;-66
2023/09/08 03:49:35;;;;;;;1.80;1.70;;;;;;;17.29;86.09;95699.47;4306132;33;20208;-66
2023/09/08 03:52:02;;;;;;;1.50;1.40;;;;;;;17.31;85.89;95701.84;4289807;33;20258;-66
2023/09/08 03:54:27;;;;;;;1.63;1.53;;;;;;;17.44;87.51;95698.12;4317266;33;20220;-66
2023/09/08 03:56:52;;;;;;;1.90;1.87;;;;;;;17.20;88.31;95701.44;4300411;33;20285;-66
2023/09/08 03:59:18;;;;;;;1.30;1.30;;;;;;;16.91;88.15;95704.94;4314944;33;20189;-66
2023/09/08 04:01:43;;;;;;;2.13;2.00;;;;;;;17.05;88.77;95700.09;4318025;33;20232;-66
2023/09/08 04:04:08;;;;;;;1.33;1.33;;;;;;;17.13;87.70;95701.97;4314853;33;20220;-66
2023/09/08 04:06:34;;;;;;;1.93;1.83;;;;;;;17.34;89.00;95706.56;4315182;33;20260;-66
2023/09/08 04:08:59;;;;;;;2.33;2.17;;;;;;;17.13;88.51;95701.97;4315506;33;20225;-66
2023/09/08 04:11:25;;;;;;;1.37;1.37;;;;;;;17.16;89.39;95706.69;4312582;33;20189;-66
2023/09/08 04:13:51;;;;;;;3.70;1.83;;;;;;;17.22;88.33;95701.13;4299769;33;20252;-66
2023/09/08 04:16:18;;;;;;;1.97;1.87;;;;;;;17.40;87.75;95705.25;4315042;33;20207;-66
2023/09/08 04:18:44;;;;;;;2.23;2.13;;;;;;;17.26;88.26;95707.38;4313276;33;20249;-66
2023/09/08 04:21:10;;;;;;;1.50;1.40;;;;;;;17.43;87.82;95709.97;4305381;33;20198;-66
2023/09/08 04:23:35;;;;;;;2.30;2.17;;;;;;;17.46;87.76;95707.41;4314818;33;20197;-66
2023/09/08 04:26:00;;;;;;;2.60;2.50;;;;;;;17.52;87.68;95705.31;4312935;33;20246;-66
2023/09/08 04:28:26;;;;;;;2.17;2.00;;;;;;;17.41;87.37;95698.78;4314535;33;20202;-66
2023/09/08 04:30:51;;;;;;;3.30;2.30;;;;;;;17.46;87.84;95701.25;4314899;33;20190;-66
2023/09/08 04:33:16;;;;;;;1.40;1.30;;;;;;;17.19;87.91;95707.91;4311666;33;20227;-66
2023/09/08 04:35:43;;;;;;;2.50;2.33;;;;;;;17.34;87.71;95696.59;4312621;33;20197;-66
2023/09/08 04:38:08;;;;;;;1.47;1.47;;;;;;;17.23;88.06;95700.81;4313237;33;20263;-66
2023/09/08 04:40:33;;;;;;;1.93;1.83;;;;;;;17.43;87.38;95701.94;4299724;33;20198;-69
2023/09/08 04:42:59;;;;;;;1.90;1.80;;;;;;;17.50;87.20;95702.16;4314173;33;20193;-69
2023/09/08 04:45:25;;;;;;;1.77;1.70;;;;;;;17.41;87.25;95706.81;4284754;33;20208;-69
2023/09/08 04:47:50;;;;;;;1.27;1.27;;;;;;;17.51;87.07;95706.41;4300503;33;20198;-68
2023/09/08 04:50:15;;;;;;;1.27;1.27;;;;;;;17.44;87.68;95711.53;4299605;33;20209;-68
2023/09/08 04:52:41;;;;;;;2.57;2.37;;;;;;;17.26;86.50;95710.84;4313531;33;20228;-69
2023/09/08 04:55:07;;;;;;;1.63;1.40;;;;;;;17.32;87.50;95711.44;4313861;33;20236;-69
2023/09/08 04:57:32;;;;;;;1.40;1.40;;;;;;;17.22;87.59;95717.22;4315321;33;20234;-69
2023/09/08 04:59:57;;;;;;;1.60;1.57;;;;;;;17.11;89.01;95717.59;4312018;33;20255;-69
2023/09/08 05:02:23;;;;;;;3.17;2.53;;;;;;;17.24;87.43;95713.09;4312359;33;20304;-69
2023/09/08 05:04:49;;;;;;;1.77;1.67;;;;;;;17.30;87.49;95716.34;4311805;33;20237;-69
2023/09/08 05:07:14;;;;;;;2.60;2.40;;;;;;;17.37;87.68;95711.28;4303109;33;20200;-68
2023/09/08 05:09:40;;;;;;;1.70;1.60;;;;;;;17.44;87.62;95711.53;4317388;33;20186;-69
2023/09/08 05:12:05;;;;;;;18.07;2.50;;;;;;;17.39;87.67;95717.09;4299513;33;20257;-69
2023/09/08 05:14:31;;;;;;;1.97;1.87;;;;;;;17.24;87.90;95715.78;4314432;33;20186;-69
2023/09/08 05:16:56;;;;;;;1.50;1.47;;;;;;;17.27;88.64;95720.47;4308546;33;20200;-68
2023/09/08 05:19:22;;;;;;;1.60;1.57;;;;;;;17.47;87.88;95721.59;4294428;33;20194;-69
2023/09/08 05:21:50;;;;;;;1.80;1.80;;;;;;;17.34;88.00;95725.31;4299728;33;20209;-69
2023/09/08 05:24:16;;;;;;;2.07;1.97;;;;;;;17.46;88.75;95723.50;4311998;33;20190;-69
2023/09/08 05:26:41;;;;;;;2.13;2.03;;;;;;;17.41;88.58;95718.34;4311598;33;20274;-69
2023/09/08 05:29:07;;;;;;;2.20;2.10;;;;;;;17.54;88.79;95727.22;4298776;33;20182;-66
2023/09/08 05:31:33;;;;;;;1.50;1.50;;;;;;;17.53;88.67;95725.66;4314413;33;20224;-66
2023/09/08 05:34:00;;;;;;;2.40;2.30;;;;;;;17.48;88.91;95728.53;4312854;33;20252;-66
2023/09/08 05:36:25;;;;;;;2.33;2.23;;;;;;;17.50;89.15;95729.00;4298715;33;20238;-66
2023/09/08 05:38:51;;;;;;;1.80;1.50;;;;;;;17.48;88.68;95737.38;4305730;33;20212;-66
2023/09/08 05:41:16;;;;;;;1.93;1.83;;;;;;;17.58;88.65;95735.41;4298463;33;20177;-68
2023/09/08 05:43:42;;;;;;;1.93;1.90;;;;;;;17.56;88.74;95732.28;4313181;33;20202;-68
2023/09/08 05:46:08;;;;;;;2.30;2.20;;;;;;;17.62;88.53;95733.66;4314388;33;20237;-68
2023/09/08 05:48:33;;;;;;;1.57;1.47;;;;;;;17.63;87.79;95735.22;4297916;33;20233;-69
2023/09/08 05:50:59;;;;;;;1.97;1.87;;;;;;;17.65;88.22;95733.81;4314233;33;20212;-69
2023/09/08 05:53:25;;;;;;;2.53;2.10;;;;;;;17.60;89.13;95736.66;4311943;33;20190;-68
2023/09/08 05:55:50;;;;;;;1.77;1.77;;;;;;;17.69;87.88;95737.41;4301131;33;20214;-69
2023/09/08 05:58:17;;;;;;;2.13;2.03;;;;;;;17.69;87.66;95741.97;4314411;33;20199;-68
2023/09/08 06:00:43;;;;;;;2.43;2.33;;;;;;;17.67;87.63;95734.25;4315209;33;20242;-69
2023/09/08 06:03:09;;;;;;;2.33;2.23;;;;;;;17.72;88.50;95742.13;4315905;33;20238;-69
2023/09/08 06:05:34;;;;;;;2.50;2.40;;;;;;;17.72;88.31;95747.47;4314199;33;20217;-69
2023/09/08 06:08:00;;;;;;;2.33;2.23;;;;;;;17.74;89.06;95750.63;4313311;33;20203;-68
2023/09/08 06:10:25;;;;;;;2.57;2.47;;;;;;;17.78;88.57;95751.53;4314497;33;20218;-69
2023/09/08 06:12:50;;;;;;;3.57;3.20;;;;;;;17.87;88.29;95750.69;4301088;33;20194;-69
2023/09/08 06:15:16;;;;;;;3.83;2.97;;;;;;;17.95;88.26;95752.50;4301662;33;20232;-69
2023/09/08 06:17:42;;;;;;;2.60;2.50;;;;;;;17.95;88.38;95753.28;4316037;33;20210;-69
2023/09/08 06:20:08;;;;;;;2.97;2.77;;;;;;;17.95;88.39;95747.94;4318617;33;20194;-68
2023/09/08 06:22:34;;;;;;;2.73;2.60;;;;;;;17.90;88.02;95755.37;4321616;33;20197;-66
2023/09/08 06:24:59;;;;;;;1.90;1.80;;;;;;;17.89;88.43;95751.12;4316399;33;20233;-66
2023/09/08 06:27:24;;;;;;;3.03;2.63;;;;;;;17.96;88.94;95757.56;4314455;33;20209;-66
2023/09/08 06:29:51;;;;;;;2.03;1.93;;;;;;;17.95;89.01;95739.87;4317498;33;20196;-66
2023/09/08 06:32:16;;;;;;;2.80;2.50;;;;;;;17.90;87.84;95748.13;4301717;33;20262;-66
2023/09/08 06:34:42;;;;;;;3.07;2.23;;;;;;;18.02;88.54;95747.41;4306940;33;20194;-66
2023/09/08 06:37:08;;;;;;;4.97;2.87;;;;;;;18.11;89.12;95745.41;4315445;33;20202;-66
2023/09/08 06:39:33;;;;;;;2.23;2.17;;;;;;;18.07;88.61;95747.22;4319249;33;20216;-66
2023/09/08 06:41:59;;;;;;;3.07;2.90;;;;;;;18.12;87.80;95752.34;4312310;33;20214;-66
2023/09/08 06:44:24;;;;;;;3.47;3.20;;;;;;;18.17;88.53;95760.22;4299025;33;20186;-66
2023/09/08 06:46:49;;;;;;;5.47;3.33;;;;;;;18.14;87.19;95758.19;4313980;33;20216;-66
2023/09/08 06:49:15;;;;;;;2.27;2.17;;;;;;;18.24;88.28;95757.00;4313645;33;20186;-65
2023/09/08 06:51:40;;;;;;;3.60;3.40;;;;;;;18.27;88.20;95767.09;4304225;33;20216;-66
2023/09/08 06:54:05;;;;;;;2.60;2.40;;;;;;;18.31;88.28;95762.59;4313407;33;20198;-66
2023/09/08 06:56:31;;;;;;;2.43;2.33;;;;;;;18.47;87.84;95760.88;4305246;33;20236;-66
2023/09/08 06:58:57;;;;;;;2.57;2.37;;;;;;;18.42;88.21;95766.44;4302432;33;20249;-66
2023/09/08 07:01:24;;;;;;;2.10;2.03;;;;;;;18.44;87.78;95765.00;4306129;33;21745;-66
2023/09/08 07:03:49;;;;;;;4.40;3.30;;;;;;;18.46;87.73;95764.66;4313970;33;20292;-66
2023/09/08 07:06:15;;;;;;;3.07;2.87;;;;;;;18.52;87.66;95764.09;4313340;33;20265;-66
2023/09/08 07:08:40;;;;;;;6.10;2.70;;;;;;;18.55;87.63;95758.06;4313345;33;20190;-66
2023/09/08 07:11:05;;;;;;;3.77;2.43;;;;;;;18.63;87.85;95763.72;4304519;33;20198;-66
2023/09/08 07:13:31;;;;;;;2.40;2.27;;;;;;;18.69;87.16;95762.41;4312172;33;20209;-66
2023/09/08 07:15:56;;;;;;;2.60;2.40;;;;;;;18.69;87.66;95760.50;4311754;33;20292;-66
2023/09/08 07:18:21;;;;;;;5.90;3.50;;;;;;;18.85;87.09;95766.00;4314907;33;20190;-66
2023/09/08 07:20:48;;;;;;;2.73;2.37;;;;;;;18.84;86.73;95767.12;4313405;33;20190;-66
2023/09/08 07:23:13;;;;;;;2.37;2.20;;;;;;;18.91;86.61;95764.66;4314537;33;20210;-66
2023/09/08 07:25:39;;;;;;;7.27;2.57;;;;;;;18.94;86.52;95752.44;4313160;33;20202;-66
2023/09/08 07:28:04;;;;;;;3.40;3.20;;;;;;;18.96;86.47;95763.63;4304111;33;20250;-66
2023/09/08 07:30:32;;;;;;;3.03;2.13;;;;;;;19.02;85.91;95760.41;4304791;33;20214;-66
2023/09/08 07:32:58;;;;;;;5.53;3.43;;;;;;;19.03;86.06;95761.97;4312947;33;20190;-66
2023/09/08 07:35:24;;;;;;;2.83;2.73;;;;;;;19.00;86.01;95762.63;4317326;33;20345;-66
2023/09/08 07:37:49;;;;;;;2.97;2.77;;;;;;;19.01;85.24;95758.81;4316065;33;20247;-66
2023/09/08 07:40:14;;;;;;;3.10;2.90;;;;;;;19.14;85.87;95754.22;4312533;33;20190;-66
2023/09/08 07:42:40;;;;;;;2.40;2.30;;;;;;;19.19;85.40;95754.78;4313879;33;20205;-66
2023/09/08 07:45:06;;;;;;;3.20;2.90;;;;;;;19.27;85.05;95752.31;4312331;33;20198;-66
2023/09/08 07:47:31;;;;;;;2.73;2.63;;;;;;;19.29;85.08;95752.78;4306623;33;20216;-66
2023/09/08 07:50:26;;;;;;;3.60;3.40;;;;;;;19.31;84.85;95759.38;4314225;33;20224;-66
2023/09/08 07:52:54;;;;;;;2.90;2.70;;;;;;;19.37;85.48;95762.63;4310252;33;20205;-66
2023/09/08 07:55:22;;;;;;;3.73;3.40;;;;;;;19.45;84.13;95761.72;4316023;33;20262;-66
2023/09/08 07:57:50;;;;;;;3.20;2.93;;;;;;;19.50;84.24;95764.22;4316705;33;20205;-66
2023/09/08 08:00:17;;;;;;;2.37;2.27;;;;;;;19.54;84.06;95770.47;4318342;33;20207;-66
2023/09/08 08:02:47;;;;;;;2.37;2.27;;;;;;;19.57;84.02;95767.09;4313244;33;20276;-68
2023/09/08 08:05:13;;;;;;;2.30;2.20;;;;;;;19.63;84.36;95770.34;4315771;33;20190;-67
2023/09/08 08:07:40;;;;;;;3.23;2.93;;;;;;;19.60;84.31;95771.81;4311811;33;20185;-67
2023/09/08 08:10:08;;;;;;;3.70;3.47;;;;;;;19.63;84.11;95770.34;4307619;33;20190;-67
2023/09/08 08:12:36;;;;;;;3.10;2.97;;;;;;;19.64;84.23;95770.00;4315201;33;20209;-67
2023/09/08 08:15:04;;;;;;;4.63;4.33;;;;;;;19.70;84.17;95763.28;4306254;33;20206;-67
2023/09/08 08:17:31;;;;;;;4.03;3.60;;;;;;;19.72;84.57;95763.72;4315975;33;20190;-67
2023/09/08 08:19:58;;;;;;;5.60;4.00;;;;;;;19.75;84.27;95760.31;4317995;33;20182;-67
2023/09/08 08:22:24;;;;;;;4.17;3.77;;;;;;;19.79;83.98;95769.28;4319020;33;20276;-68
2023/09/08 08:24:49;;;;;;;3.50;3.23;;;;;;;19.89;83.42;95766.13;4305617;33;20237;-66
2023/09/08 08:27:15;;;;;;;3.07;2.97;;;;;;;19.88;83.30;95761.88;4317845;33;20189;-66
2023/09/08 08:29:40;;;;;;;3.07;2.87;;;;;;;20.01;82.86;95761.81;4316160;33;20246;-66
2023/09/08 08:32:06;;;;;;;2.33;2.23;;;;;;;20.16;81.78;95761.88;4315987;33;20216;-67
2023/09/08 08:34:31;;;;;;;2.77;2.67;;;;;;;20.12;81.99;95757.53;4306285;33;20240;-66
2023/09/08 08:36:56;;;;;;;3.43;3.23;;;;;;;20.22;82.30;95759.72;4317192;33;20206;-66
2023/09/08 08:39:22;;;;;;;2.87;2.67;;;;;;;20.19;82.43;95763.87;4304052;33;20224;-66
2023/09/08 08:41:47;;;;;;;2.77;2.67;;;;;;;20.25;81.65;95764.41;4323573;33;20220;-66
2023/09/08 08:44:17;;;;;;;1.90;1.80;;;;;;;20.30;81.40;95758.78;4317644;33;20194;-65
2023/09/08 08:46:44;;;;;;;3.67;2.80;;;;;;;20.33;81.28;95763.50;4310556;33;20279;-66
2023/09/08 08:49:11;;;;;;;7.67;3.87;;;;;;;20.41;81.25;95757.19;4316836;33;20228;-66
2023/09/08 08:51:39;;;;;;;3.60;2.43;;;;;;;20.41;81.02;95759.09;4316260;33;20217;-66
2023/09/08 08:54:05;;;;;;;2.37;2.27;;;;;;;20.38;81.33;95755.16;4303460;33;20230;-66
2023/09/08 08:56:31;;;;;;;2.63;2.53;;;;;;;20.40;82.28;95752.91;4319175;33;20218;-66
2023/09/08 08:58:58;;;;;;;2.57;2.37;;;;;;;20.40;82.29;95754.81;4304030;33;20228;-66
2023/09/08 09:01:25;;;;;;;2.43;2.33;;;;;;;20.44;81.86;95753.00;4317182;33;20182;-66
2023/09/08 09:03:52;;;;;;;1.97;1.97;;;;;;;20.53;81.61;95753.66;4317237;33;20210;-65
2023/09/08 09:06:18;;;;;;;3.97;3.33;;;;;;;20.56;81.80;95751.06;4303749;33;20277;-66
2023/09/08 09:08:44;;;;;;;4.07;3.23;;;;;;;20.63;80.91;95747.72;4317332;33;20202;-66
2023/09/08 09:11:11;;;;;;;2.07;1.83;;;;;;;20.70;80.38;95747.91;4308632;33;20201;-66
2023/09/08 09:13:37;;;;;;;1.93;1.83;;;;;;;20.71;80.34;95751.41;4317275;33;20190;-66
2023/09/08 09:16:03;;;;;;;2.93;2.73;;;;;;;20.73;80.49;95738.34;4319417;33;20212;-66
2023/09/08 09:18:32;;;;;;;7.80;3.57;;;;;;;20.84;80.23;95748.25;4304224;33;20227;-67
2023/09/08 09:20:59;;;;;;;2.43;2.33;;;;;;;21.15;78.64;95742.06;4317834;33;20194;-66
2023/09/08 09:23:43;;;;;;;2.63;2.43;;;;;;;21.32;78.34;95745.56;4316644;33;20204;-66
2023/09/08 09:26:08;;;;;;;4.00;3.80;;;;;;;21.30;78.45;95742.44;4317397;33;20197;-66
2023/09/08 09:28:34;;;;;;;3.10;2.80;;;;;;;21.21;78.61;95743.38;4317091;33;20202;-67
2023/09/08 09:31:00;;;;;;;3.27;3.07;;;;;;;21.18;78.71;95744.09;4317582;33;20249;-65
2023/09/08 09:33:27;;;;;;;3.23;3.13;;;;;;;21.24;78.69;95739.22;4316195;33;20238;-66
2023/09/08 09:35:54;;;;;;;4.20;2.83;;;;;;;21.34;78.75;95735.19;4303631;33;20197;-65
2023/09/08 09:38:21;;;;;;;3.73;3.43;;;;;;;21.41;78.37;95736.12;4302827;33;20242;-65
2023/09/08 09:40:47;;;;;;;4.10;3.77;;;;;;;21.38;79.01;95736.84;4317461;33;20202;-65
2023/09/08 09:43:14;;;;;;;5.87;2.20;;;;;;;21.51;78.42;95740.97;4317288;33;20202;-66
2023/09/08 09:45:41;;;;;;;3.13;3.00;;;;;;;21.58;78.00;95734.97;4310010;33;20255;-66
2023/09/08 09:48:08;;;;;;;3.57;3.37;;;;;;;21.67;77.98;95732.81;4317048;33;20212;-65
2023/09/08 09:50:43;;;;;;;3.63;3.43;;;;;;;21.77;77.45;95731.50;4302951;33;20202;-66
2023/09/08 09:53:16;;;;;;;4.10;3.90;;;;;;;21.97;76.49;95729.59;4306441;33;20197;-65
2023/09/08 09:55:44;;;;;;;2.37;2.27;;;;;;;21.98;76.58;95726.53;4313294;33;20194;-65
2023/09/08 09:58:14;;;;;;;3.20;3.00;;;;;;;22.08;75.76;95725.19;4316613;33;20292;-66
2023/09/08 10:00:47;;;;;;;1.90;1.80;;;;;;;22.13;75.88;95722.97;4303306;33;20293;-66
2023/09/08 10:03:13;;;;;;;3.10;3.00;;;;;;;22.24;75.70;95723.16;4317175;33;20205;-66
2023/09/08 10:05:38;;;;;;;2.33;2.13;;;;;;;22.20;75.82;95725.84;4316438;33;20186;-65
2023/09/08 10:08:04;;;;;;;2.27;2.17;;;;;;;22.12;76.12;95715.22;4315807;33;20205;-66
2023/09/08 10:10:32;;;;;;;2.40;2.30;;;;;;;22.03;75.51;95709.28;4304648;33;20236;-66
2023/09/08 10:13:05;;;;;;;2.50;2.40;;;;;;;22.06;75.97;95716.66;4316698;33;20222;-67
2023/09/08 10:15:31;;;;;;;6.33;2.50;;;;;;;22.08;75.84;95711.66;4303607;33;20204;-66
2023/09/08 10:17:57;;;;;;;2.20;2.00;;;;;;;22.06;75.72;95711.25;4316805;33;20237;-65
2023/09/08 10:20:27;;;;;;;2.20;2.10;;;;;;;22.13;74.77;95708.69;4317165;33;20195;-67
2023/09/08 10:22:56;;;;;;;2.40;2.27;;;;;;;22.17;75.47;95706.84;4313963;33;20276;-66
2023/09/08 10:25:24;;;;;;;2.07;1.97;;;;;;;22.19;74.98;95712.66;4317132;33;20269;-67
2023/09/08 10:27:50;;;;;;;2.20;2.10;;;;;;;22.37;72.37;95711.06;4316337;33;20242;-67
2023/09/08 10:30:17;;;;;;;3.23;2.73;;;;;;;22.39;72.41;95708.78;4316258;33;20202;-67
2023/09/08 10:32:43;;;;;;;2.17;2.07;;;;;;;22.41;72.91;95706.50;4316663;33;20253;-67
2023/09/08 10:35:09;;;;;;;3.57;3.27;;;;;;;22.39;73.73;95708.78;4303528;33;20208;-67
2023/09/08 10:37:35;;;;;;;2.93;2.83;;;;;;;22.38;74.24;95712.63;4305355;33;20205;-67
2023/09/08 10:40:23;;;;;;;5.50;2.70;;;;;;;22.48;71.50;95706.62;4326212;33;20222;-67
2023/09/08 10:42:49;;;;;;;2.77;2.57;;;;;;;22.54;71.70;95707.12;4317774;33;20286;-67
2023/09/08 10:45:17;;;;;;;3.47;2.43;;;;;;;22.59;70.88;95704.91;4306672;33;20229;-67
2023/09/08 10:47:45;;;;;;;2.73;2.53;;;;;;;22.65;71.04;95704.59;4318524;33;20198;-66
2023/09/08 10:50:17;;;;;;;1.87;1.77;;;;;;;22.75;70.89;95706.69;4318397;33;20260;-67
2023/09/08 10:52:43;;;;;;;2.27;2.17;;;;;;;22.74;71.62;95705.13;4308499;33;20257;-67
2023/09/08 10:55:11;;;;;;;1.73;1.67;;;;;;;22.72;70.80;95704.69;4311374;33;20224;-67
2023/09/08 10:57:36;;;;;;;1.53;1.53;;;;;;;22.77;70.28;95707.12;4324275;33;20212;-67
2023/09/08 11:00:10;;;;;;;2.57;2.47;;;;;;;22.78;70.55;95706.00;4319453;33;20186;-67
2023/09/08 11:02:44;;;;;;;1.97;1.93;;;;;;;22.78;71.22;95695.19;4299928;33;20205;-67
2023/09/08 11:05:13;;;;;;;2.77;2.57;;;;;;;22.78;71.37;95697.88;4318258;33;20303;-66
2023/09/08 11:07:40;;;;;;;2.57;2.47;;;;;;;22.84;71.77;95694.53;4292901;33;20236;-66
2023/09/08 11:10:07;;;;;;;3.03;1.77;;;;;;;22.92;72.17;95695.41;4304734;33;20248;-67
2023/09/08 11:12:32;;;;;;;2.83;2.63;;;;;;;23.05;71.78;95702.19;4307149;33;20257;-66
2023/09/08 11:15:03;;;;;;;2.03;1.97;;;;;;;23.24;71.19;95693.97;4318280;33;20194;-65
2023/09/08 11:17:30;;;;;;;2.27;2.07;;;;;;;23.45;70.40;95703.53;4304809;33;20259;-64
2023/09/08 11:19:56;;;;;;;1.60;1.60;;;;;;;23.59;69.19;95698.31;4319875;32;20229;-66
2023/09/08 11:22:26;;;;;;;2.43;2.27;;;;;;;23.59;68.76;95703.75;4314159;33;20204;-65
2023/09/08 11:24:58;;;;;;;2.50;2.40;;;;;;;23.46;69.88;95705.09;4316499;33;20234;-65
2023/09/08 11:27:24;;;;;;;2.73;2.63;;;;;;;23.53;69.25;95699.78;4316607;33;22257;-65
2023/09/08 11:29:51;;;;;;;2.87;2.70;;;;;;;23.67;67.95;95697.28;4316577;33;20241;-65
2023/09/08 11:32:16;;;;;;;3.83;3.63;;;;;;;23.72;67.82;95702.34;4316597;33;20326;-65